首页
METAR-TAF:

METAR-TAF

机场 :

克里斯蒂亚诺·罗纳尔多机场

丰沙尔, 馬德拉群岛, 葡萄牙

纬度: 32-41-52N, 经度: 016-46-28W, 海拔: 59米

当前天气观测

该预报发布于14分钟前的08:30 UTC
风速17节,风向东北
温度 22°C
湿度 73%
气压 1020 hPa
能见度10公里或以上
散云层高于1600英尺
多云层高于3000英尺

METAR: LPMA 140830Z 04017KT 9999 SCT016 BKN030 22/17 Q1020

时间: 09:44 (08:44 UTC)

预报

该预报发布于3小时和34分钟前的05:10 UTC
预报有效从14日的 06点(UTC)到 15日的 06点(UTC)
风速18节,风向北转东北
能见度10公里或以上
散云层高于1500英尺
短暂存在
从 14日的 07点(UTC)到 14日的 20点(UTC)
风速20节,风向北转东北,有时为32节阵风
少量云层高于1500英尺
多云层高于8000英尺

TAF: LPMA 140510Z 1406/1506 03018KT 9999 SCT015 TEMPO 1407/1420 02020G32KT FEW015 BKN080

超过4000个机场的气象观测和天气预报(METAR&TAF报告)。

可查询的气象台以黄色和红色小点在地图上表示。

将鼠标移到小点上方,可查看气象台名称。

然后点击查看天气观测和预报。

如需切换地图:点击带黑十字的绿色按钮放大地图;点击带横线的绿色按钮缩小地图;或者点击绿色箭头查看邻近地区的地图。


METAR-TAF: